createdAt,value
2023-04-21T00:01:30.074Z,12.37
2023-04-21T00:03:57.130Z,13.90
2023-04-21T00:06:24.101Z,13.13
2023-04-21T00:08:51.057Z,13.37
2023-04-21T00:11:18.333Z,13.77
2023-04-21T00:13:45.407Z,12.63
2023-04-21T00:16:12.541Z,13.30
2023-04-21T00:18:39.490Z,13.97
2023-04-21T00:21:06.397Z,13.67
2023-04-21T00:23:33.275Z,14.33
2023-04-21T00:26:02.857Z,14.33
2023-04-21T00:28:30.226Z,14.13
2023-04-21T00:30:57.102Z,13.80
2023-04-21T00:33:24.048Z,13.47
2023-04-21T00:35:50.967Z,13.67
2023-04-21T00:38:17.748Z,13.70
2023-04-21T00:40:44.587Z,12.77
2023-04-21T00:43:11.382Z,12.93
2023-04-21T00:45:38.202Z,12.60
2023-04-21T00:48:05.444Z,12.87
2023-04-21T00:50:33.608Z,12.67
2023-04-21T00:53:00.809Z,13.20
2023-04-21T00:55:27.722Z,14.40
2023-04-21T00:57:56.586Z,12.70
2023-04-21T01:00:23.625Z,11.83
2023-04-21T01:02:50.843Z,13.67
2023-04-21T01:05:18.312Z,13.07
2023-04-21T01:07:45.691Z,11.73
2023-04-21T01:10:12.515Z,11.60
2023-04-21T01:12:57.290Z,13.40
2023-04-21T01:15:24.208Z,13.60
2023-04-21T01:17:54.107Z,13.20
2023-04-21T01:20:21.032Z,12.23
2023-04-21T01:22:47.961Z,12.20
2023-04-21T01:25:15.093Z,12.97
2023-04-21T01:27:41.905Z,12.37
2023-04-21T01:30:10.184Z,12.13
2023-04-21T01:32:37.307Z,14.07
2023-04-21T01:35:04.562Z,12.87
2023-04-21T01:37:32.981Z,12.67
2023-04-21T01:40:04.820Z,12.33
2023-04-21T01:42:32.259Z,12.80
2023-04-21T01:44:59.533Z,12.80
2023-04-21T01:47:26.915Z,12.97
2023-04-21T01:49:54.037Z,12.73
2023-04-21T01:52:21.660Z,12.30
2023-04-21T01:54:48.831Z,11.97
2023-04-21T01:57:16.450Z,12.63
2023-04-21T01:59:43.941Z,12.90
2023-04-21T02:02:10.965Z,13.80
2023-04-21T02:04:37.976Z,13.97
2023-04-21T02:07:05.021Z,15.20
2023-04-21T02:09:32.217Z,15.50
2023-04-21T02:11:59.118Z,13.73
2023-04-21T02:14:26.398Z,13.30
2023-04-21T02:16:53.537Z,14.07
2023-04-21T02:19:20.791Z,13.90
2023-04-21T02:21:47.900Z,13.90
2023-04-21T02:24:14.833Z,13.63
2023-04-21T02:26:41.684Z,14.20
2023-04-21T02:29:08.545Z,13.63
2023-04-21T02:31:43.316Z,12.70
2023-04-21T02:34:21.503Z,12.97
2023-04-21T02:36:48.424Z,14.07
2023-04-21T02:39:15.351Z,13.33
2023-04-21T02:41:42.549Z,15.60
2023-04-21T02:44:09.344Z,15.17
2023-04-21T02:46:36.170Z,14.77
2023-04-21T02:49:03.312Z,14.80
2023-04-21T02:51:30.115Z,16.30
2023-04-21T02:53:57.019Z,16.40
2023-04-21T02:56:23.862Z,15.37
2023-04-21T02:58:50.705Z,16.13
2023-04-21T03:01:17.657Z,16.20
2023-04-21T03:03:44.750Z,16.97
2023-04-21T03:06:11.690Z,17.33
2023-04-21T03:08:38.494Z,17.83
2023-04-21T03:11:05.604Z,16.37
2023-04-21T03:13:32.486Z,17.57
2023-04-21T03:15:59.342Z,19.13
2023-04-21T03:18:26.398Z,19.40
2023-04-21T03:20:58.889Z,17.80
2023-04-21T03:23:25.722Z,18.50
2023-04-21T03:25:52.544Z,19.33
2023-04-21T03:28:19.480Z,20.07
2023-04-21T03:30:46.412Z,18.90
2023-04-21T03:33:13.389Z,19.80
2023-04-21T03:35:40.271Z,20.13
2023-04-21T03:38:07.086Z,19.07
2023-04-21T03:40:34.019Z,18.53
2023-04-21T03:43:00.886Z,19.67
2023-04-21T03:45:27.677Z,19.63
2023-04-21T03:47:55.927Z,18.90
2023-04-21T03:50:23.610Z,18.70
2023-04-21T03:52:50.528Z,19.83
2023-04-21T03:55:17.624Z,20.43
2023-04-21T03:57:44.560Z,20.50
2023-04-21T04:00:12.823Z,19.13
2023-04-21T04:02:40.673Z,20.40
2023-04-21T04:05:08.155Z,21.67
2023-04-21T04:07:35.916Z,20.43
2023-04-21T04:10:02.759Z,20.40
2023-04-21T04:12:29.672Z,22.10
2023-04-21T04:14:56.519Z,20.70
2023-04-21T04:17:23.357Z,20.60
2023-04-21T04:19:50.220Z,22.17
2023-04-21T04:22:17.191Z,19.93
2023-04-21T04:24:45.176Z,21.27
2023-04-21T04:27:14.262Z,20.20
2023-04-21T04:29:41.296Z,20.47
2023-04-21T04:32:11.269Z,20.23
2023-04-21T04:34:38.778Z,22.17
2023-04-21T04:37:06.685Z,20.73
2023-04-21T04:39:33.741Z,21.80
2023-04-21T04:42:01.459Z,20.60
2023-04-21T04:44:28.444Z,21.60
2023-04-21T04:46:55.827Z,21.00
2023-04-21T04:49:24.133Z,21.13
2023-04-21T04:51:51.121Z,21.43
2023-04-21T04:54:19.373Z,20.60
2023-04-21T04:56:46.352Z,21.93
2023-04-21T04:59:13.319Z,22.40
2023-04-21T05:01:41.936Z,22.03
2023-04-21T05:04:09.132Z,21.43
2023-04-21T05:06:36.170Z,21.27
2023-04-21T05:09:04.941Z,21.13
2023-04-21T05:11:32.087Z,21.97
2023-04-21T05:13:59.122Z,21.97
2023-04-21T05:16:26.076Z,21.33
2023-04-21T05:18:54.280Z,22.30
2023-04-21T05:21:27.774Z,22.07
2023-04-21T05:23:56.395Z,21.73
2023-04-21T05:26:24.605Z,21.37
2023-04-21T05:28:51.539Z,22.60
2023-04-21T05:31:18.335Z,21.30
2023-04-21T05:33:45.398Z,21.60
2023-04-21T05:36:12.509Z,22.27
2023-04-21T05:38:39.650Z,23.43
2023-04-21T05:41:07.437Z,23.93
2023-04-21T05:43:34.664Z,24.20
2023-04-21T05:46:02.986Z,23.80
2023-04-21T05:48:29.825Z,24.87
2023-04-21T05:50:56.694Z,23.70
2023-04-21T05:53:23.727Z,23.50
2023-04-21T05:55:50.804Z,23.07
2023-04-21T05:58:17.670Z,24.87
2023-04-21T06:00:44.466Z,24.00
2023-04-21T06:03:11.402Z,23.17
2023-04-21T06:05:38.328Z,24.07
2023-04-21T06:08:05.345Z,24.60
2023-04-21T06:10:32.230Z,24.00
2023-04-21T06:12:59.087Z,24.80
2023-04-21T06:15:26.221Z,22.73
2023-04-21T06:17:55.144Z,23.93
2023-04-21T06:20:22.168Z,25.67
2023-04-21T06:22:49.004Z,24.37
2023-04-21T06:25:15.859Z,25.00
2023-04-21T06:27:42.661Z,25.37
2023-04-21T06:30:09.665Z,25.17
2023-04-21T06:32:36.527Z,25.20
2023-04-21T06:35:03.625Z,26.03
2023-04-21T06:37:30.498Z,24.87
2023-04-21T06:39:57.396Z,26.37
2023-04-21T06:42:24.277Z,23.30
2023-04-21T06:44:51.145Z,23.83
2023-04-21T06:47:18.069Z,25.87
2023-04-21T06:49:45.125Z,24.43
2023-04-21T06:52:12.237Z,24.63
2023-04-21T06:54:39.144Z,23.77
2023-04-21T06:57:06.766Z,24.63
2023-04-21T06:59:34.736Z,23.93
2023-04-21T07:02:01.575Z,23.23
2023-04-21T07:04:30.296Z,23.13
2023-04-21T07:06:57.356Z,23.57
2023-04-21T07:09:24.392Z,24.60
2023-04-21T07:11:51.206Z,22.83
2023-04-21T07:14:17.997Z,21.97
2023-04-21T07:16:44.921Z,21.93
2023-04-21T07:19:11.751Z,21.43
2023-04-21T07:21:38.649Z,23.30
2023-04-21T07:24:06.056Z,21.73
2023-04-21T07:26:34.292Z,23.27
2023-04-21T07:29:01.082Z,24.00
2023-04-21T07:31:28.098Z,22.63
2023-04-21T07:33:55.027Z,23.10
2023-04-21T07:36:21.837Z,21.20
2023-04-21T07:38:48.695Z,21.57
2023-04-21T07:41:15.487Z,19.03
2023-04-21T07:43:42.361Z,21.33
2023-04-21T07:46:09.435Z,20.40
2023-04-21T07:48:36.293Z,20.83
2023-04-21T07:51:03.753Z,20.77
2023-04-21T07:53:31.207Z,20.93
2023-04-21T07:55:58.473Z,21.57
2023-04-21T07:58:25.290Z,22.30
2023-04-21T08:00:52.606Z,21.03
2023-04-21T08:03:21.430Z,21.07
2023-04-21T08:05:50.064Z,20.17
2023-04-21T08:08:20.363Z,19.10
2023-04-21T08:10:47.304Z,19.93
2023-04-21T08:13:14.369Z,20.00
2023-04-21T08:15:41.267Z,20.23
2023-04-21T08:18:09.432Z,19.27
2023-04-21T08:20:36.636Z,17.57
2023-04-21T08:23:03.556Z,18.37
2023-04-21T08:25:31.103Z,16.27
2023-04-21T08:27:58.094Z,17.97
2023-04-21T08:30:27.872Z,17.27
2023-04-21T08:32:54.756Z,17.00
2023-04-21T08:35:21.684Z,16.97
2023-04-21T08:37:49.325Z,16.03
2023-04-21T08:40:18.442Z,16.37
2023-04-21T08:42:45.887Z,15.77
2023-04-21T08:45:12.696Z,16.77
2023-04-21T08:47:41.372Z,17.43
2023-04-21T08:50:14.737Z,14.87
2023-04-21T08:52:41.850Z,15.60
2023-04-21T08:55:11.364Z,15.87
2023-04-21T08:57:38.233Z,15.50
2023-04-21T09:00:08.088Z,14.50
2023-04-21T09:03:00.635Z,15.57
2023-04-21T09:05:34.398Z,15.17
2023-04-21T09:08:16.631Z,15.83
2023-04-21T09:10:52.564Z,14.30
2023-04-21T09:13:23.239Z,13.43
2023-04-21T09:15:54.486Z,12.97
2023-04-21T09:18:26.531Z,15.57
2023-04-21T09:21:09.723Z,16.27
2023-04-21T09:23:49.884Z,15.70
2023-04-21T09:26:18.201Z,14.03
2023-04-21T09:28:47.219Z,13.43
2023-04-21T09:31:16.483Z,13.80
2023-04-21T09:36:26.327Z,14.10
2023-04-21T09:39:12.871Z,14.07
2023-04-21T09:41:45.008Z,12.17
2023-04-21T09:44:12.097Z,13.37
2023-04-21T09:46:39.419Z,14.03
2023-04-21T09:49:06.714Z,15.13
2023-04-21T09:54:28.179Z,14.13
2023-04-21T09:56:58.232Z,14.93
2023-04-21T09:59:37.441Z,14.27
2023-04-21T10:02:06.388Z,14.17
2023-04-21T10:04:35.020Z,13.03
2023-04-21T10:07:03.135Z,12.37
2023-04-21T10:09:36.852Z,11.97
2023-04-21T10:12:06.948Z,11.83
2023-04-21T10:14:35.464Z,11.60
2023-04-21T10:17:07.849Z,12.33
2023-04-21T10:19:39.769Z,12.37
2023-04-21T10:22:08.949Z,12.57
2023-04-21T10:24:44.825Z,11.77
2023-04-21T10:27:12.830Z,12.30
2023-04-21T10:29:52.374Z,11.80
2023-04-21T10:33:05.569Z,12.70
2023-04-21T10:35:58.473Z,11.50
2023-04-21T10:38:42.065Z,13.00
2023-04-21T10:41:28.067Z,13.67
2023-04-21T10:43:59.526Z,11.33
2023-04-21T10:46:37.522Z,15.30
2023-04-21T10:49:12.435Z,14.50
2023-04-21T10:52:04.299Z,14.53
2023-04-21T10:54:45.917Z,13.70
2023-04-21T10:57:20.713Z,13.20
2023-04-21T10:59:49.505Z,11.97
2023-04-21T11:02:19.285Z,12.87
2023-04-21T11:04:51.699Z,13.03
2023-04-21T11:07:23.667Z,12.17
2023-04-21T11:10:01.919Z,12.37
2023-04-21T11:12:34.167Z,12.13
2023-04-21T11:15:05.105Z,11.37
2023-04-21T11:17:32.228Z,11.37
2023-04-21T11:19:59.084Z,11.00
2023-04-21T11:22:27.332Z,10.53
2023-04-21T11:24:56.317Z,11.17
2023-04-21T11:27:26.028Z,11.00
2023-04-21T11:29:52.915Z,11.70
2023-04-21T11:32:19.889Z,11.50
2023-04-21T11:34:46.789Z,11.90
2023-04-21T11:37:23.275Z,12.30
2023-04-21T11:39:50.209Z,11.43
2023-04-21T11:42:23.098Z,11.50
2023-04-21T11:44:49.971Z,13.57
2023-04-21T11:47:22.590Z,12.33
2023-04-21T11:49:59.505Z,13.57
2023-04-21T11:52:32.939Z,14.93
2023-04-21T11:55:11.647Z,13.97
2023-04-21T11:57:40.980Z,14.10
2023-04-21T12:00:16.154Z,13.87
2023-04-21T12:02:43.797Z,13.10
2023-04-21T12:05:12.619Z,13.00
2023-04-21T12:07:45.564Z,12.40
2023-04-21T12:10:18.299Z,13.47
2023-04-21T12:12:46.114Z,13.90
2023-04-21T12:15:23.352Z,14.27
2023-04-21T12:17:52.172Z,14.90
2023-04-21T12:20:21.707Z,15.03
2023-04-21T12:22:49.493Z,15.40
2023-04-21T12:25:16.698Z,15.47
2023-04-21T12:27:54.382Z,15.77
2023-04-21T12:30:21.725Z,16.10
2023-04-21T12:32:49.136Z,15.93
2023-04-21T12:35:16.324Z,16.70
2023-04-21T12:37:44.974Z,17.07
2023-04-21T12:40:11.818Z,17.73
2023-04-21T12:42:38.764Z,16.53
2023-04-21T12:45:06.625Z,17.43
2023-04-21T12:47:34.161Z,16.60
2023-04-21T12:50:01.354Z,17.40
2023-04-21T12:52:28.514Z,18.93
2023-04-21T12:54:55.421Z,17.67
2023-04-21T12:57:22.287Z,19.43
2023-04-21T12:59:49.317Z,16.80
2023-04-21T13:02:16.828Z,18.27
2023-04-21T13:04:43.900Z,17.23
2023-04-21T13:07:10.824Z,16.57
2023-04-21T13:09:38.422Z,17.13
2023-04-21T13:12:05.262Z,16.77
2023-04-21T13:14:32.025Z,16.27
2023-04-21T13:16:59.460Z,16.00
2023-04-21T13:19:26.444Z,16.93
2023-04-21T13:21:54.362Z,17.63
2023-04-21T13:24:21.838Z,17.33
2023-04-21T13:26:48.896Z,18.97
2023-04-21T13:29:16.142Z,17.63
2023-04-21T13:31:43.169Z,17.27
2023-04-21T13:34:10.049Z,19.17
2023-04-21T13:36:37.132Z,17.77
2023-04-21T13:39:05.835Z,17.07
2023-04-21T13:41:32.808Z,17.60
2023-04-21T13:43:59.638Z,17.50
2023-04-21T13:46:26.579Z,18.07
2023-04-21T13:48:53.895Z,16.37
2023-04-21T13:51:20.984Z,18.80
2023-04-21T13:53:48.770Z,17.50
2023-04-21T13:56:16.244Z,18.80
2023-04-21T13:58:43.588Z,19.33
2023-04-21T14:01:10.530Z,19.97
2023-04-21T14:03:37.525Z,19.47
2023-04-21T14:06:04.865Z,18.50
2023-04-21T14:08:31.761Z,18.77
2023-04-21T14:10:58.794Z,18.30
2023-04-21T14:13:36.114Z,19.40
2023-04-21T14:16:07.825Z,18.77
2023-04-21T14:18:34.952Z,18.83
2023-04-21T14:21:01.827Z,18.40
2023-04-21T14:23:28.638Z,18.33
2023-04-21T14:25:55.626Z,19.73
2023-04-21T14:28:22.562Z,18.43
2023-04-21T14:30:49.532Z,19.87
2023-04-21T14:33:16.462Z,19.67
2023-04-21T14:35:43.310Z,19.53
2023-04-21T14:38:10.281Z,19.63
2023-04-21T14:40:37.107Z,20.23
2023-04-21T14:43:03.978Z,20.20
2023-04-21T14:45:31.084Z,20.40
2023-04-21T14:47:58.493Z,17.83
2023-04-21T14:50:25.339Z,19.57
2023-04-21T14:52:52.280Z,18.30
2023-04-21T14:55:19.212Z,18.83
2023-04-21T14:57:47.152Z,18.97
2023-04-21T15:00:14.550Z,18.07
2023-04-21T15:02:41.842Z,17.57
2023-04-21T15:05:09.073Z,17.73
2023-04-21T15:07:36.265Z,16.77
2023-04-21T15:10:03.343Z,16.67
2023-04-21T15:12:30.327Z,15.47
2023-04-21T15:14:57.204Z,15.50
2023-04-21T15:17:24.348Z,15.27
2023-04-21T15:19:51.397Z,13.83
2023-04-21T15:22:18.743Z,13.47
2023-04-21T15:24:46.167Z,12.87
2023-04-21T15:27:12.950Z,12.13
2023-04-21T15:29:40.116Z,12.80
2023-04-21T15:32:07.067Z,12.77
2023-04-21T15:34:33.903Z,13.67
2023-04-21T15:37:00.835Z,12.70
2023-04-21T15:39:27.689Z,12.40
2023-04-21T15:41:55.164Z,13.60
2023-04-21T15:44:22.117Z,13.57
2023-04-21T15:46:49.033Z,13.33
2023-04-21T15:49:16.186Z,12.57
2023-04-21T15:51:43.133Z,13.50
2023-04-21T15:54:10.936Z,13.73
2023-04-21T15:56:37.852Z,12.90
2023-04-21T15:59:05.223Z,13.63
2023-04-21T16:01:32.066Z,11.90
2023-04-21T16:03:59.669Z,11.37
2023-04-21T16:06:29.370Z,11.80
2023-04-21T16:08:56.773Z,11.00
2023-04-21T16:11:25.119Z,12.53
2023-04-21T16:13:52.277Z,12.13
2023-04-21T16:16:19.154Z,11.50
2023-04-21T16:18:46.112Z,12.70
2023-04-21T16:21:13.114Z,12.57
2023-04-21T16:23:40.542Z,12.70
2023-04-21T16:26:09.088Z,13.03
2023-04-21T16:28:36.092Z,13.37
2023-04-21T16:31:03.059Z,12.50
2023-04-21T16:33:30.026Z,13.10
2023-04-21T16:35:57.676Z,12.20
2023-04-21T16:38:25.054Z,12.50
2023-04-21T16:40:52.064Z,12.23
2023-04-21T16:43:19.070Z,13.00
2023-04-21T16:45:45.940Z,11.97
2023-04-21T16:48:13.065Z,10.97
2023-04-21T16:50:41.939Z,12.07
2023-04-21T16:53:09.104Z,12.27
2023-04-21T16:55:36.006Z,12.17
2023-04-21T16:58:03.102Z,11.37
2023-04-21T17:00:32.709Z,10.47
2023-04-21T17:02:59.696Z,10.27
2023-04-21T17:05:27.358Z,9.23
2023-04-21T17:07:54.199Z,10.53
2023-04-21T17:10:21.180Z,10.63
2023-04-21T17:12:48.035Z,11.40
2023-04-21T17:15:15.414Z,11.00
2023-04-21T17:17:44.820Z,11.77
2023-04-21T17:20:13.606Z,12.30
2023-04-21T17:22:41.154Z,11.57
2023-04-21T17:25:09.420Z,11.20
2023-04-21T17:27:37.588Z,11.90
2023-04-21T17:30:05.705Z,10.50
2023-04-21T17:32:34.011Z,11.30
2023-04-21T17:35:01.609Z,11.23
2023-04-21T17:37:30.334Z,11.27
2023-04-21T17:39:59.266Z,10.83
2023-04-21T17:42:29.287Z,9.03
2023-04-21T17:44:56.093Z,4.53
2023-04-21T17:47:22.971Z,2.73
2023-04-21T17:49:49.850Z,2.60
2023-04-21T17:52:17.280Z,2.80
2023-04-21T17:54:44.391Z,2.30
2023-04-21T17:57:11.967Z,1.90
2023-04-21T17:59:39.624Z,2.10
2023-04-21T18:02:07.347Z,5.37
2023-04-21T18:04:34.754Z,3.43
2023-04-21T18:07:02.559Z,2.80
2023-04-21T18:09:29.702Z,2.33
2023-04-21T18:11:57.079Z,2.67
2023-04-21T18:14:24.711Z,2.10
2023-04-21T18:16:51.723Z,2.00
2023-04-21T18:19:18.693Z,2.30
2023-04-21T18:21:45.872Z,2.10
2023-04-21T18:24:12.754Z,1.70
2023-04-21T18:26:39.674Z,2.10
2023-04-21T18:29:06.639Z,2.50
2023-04-21T18:31:34.510Z,2.40
2023-04-21T18:34:01.594Z,2.30
2023-04-21T18:36:30.727Z,2.43
2023-04-21T18:38:58.473Z,2.23
2023-04-21T18:41:26.819Z,1.97
2023-04-21T18:43:54.014Z,2.20
2023-04-21T18:46:20.985Z,2.43
2023-04-21T18:48:47.815Z,2.33
2023-04-21T18:51:14.694Z,2.53
2023-04-21T18:53:43.298Z,2.57
2023-04-21T18:56:10.193Z,2.57
2023-04-21T18:58:37.218Z,2.87
2023-04-21T19:01:04.187Z,2.50
2023-04-21T19:03:31.344Z,2.67
2023-04-21T19:05:58.355Z,2.40
2023-04-21T19:08:38.738Z,2.53
2023-04-21T19:11:10.160Z,2.40
2023-04-21T19:13:37.206Z,2.73
2023-04-21T19:16:05.212Z,2.20
2023-04-21T19:18:32.255Z,2.10
2023-04-21T19:20:59.148Z,2.67
2023-04-21T19:23:25.898Z,2.57
2023-04-21T19:25:55.076Z,2.73
2023-04-21T19:28:22.325Z,2.70
2023-04-21T19:30:49.388Z,2.70
2023-04-21T19:33:16.498Z,2.20
2023-04-21T19:35:43.453Z,2.47
2023-04-21T19:38:10.565Z,2.70
2023-04-21T19:40:37.413Z,2.30
2023-04-21T19:43:05.024Z,2.53
2023-04-21T19:45:31.998Z,3.10
2023-04-21T19:47:58.872Z,4.97
2023-04-21T19:50:26.034Z,3.40
2023-04-21T19:52:52.903Z,2.80
2023-04-21T19:55:19.976Z,3.77
2023-04-21T19:57:46.776Z,3.40
2023-04-21T20:00:14.386Z,2.97
2023-04-21T20:02:41.478Z,3.17
2023-04-21T20:05:09.467Z,3.27
2023-04-21T20:07:37.244Z,3.57
2023-04-21T20:10:05.970Z,3.27
2023-04-21T20:12:33.303Z,3.80
2023-04-21T20:15:01.194Z,3.40
2023-04-21T20:17:29.040Z,4.10
2023-04-21T20:19:56.053Z,3.27
2023-04-21T20:22:22.961Z,3.20
2023-04-21T20:24:52.099Z,3.67
2023-04-21T20:27:19.423Z,3.50
2023-04-21T20:29:47.003Z,3.20
2023-04-21T20:32:14.053Z,3.67
2023-04-21T20:34:41.034Z,2.90
2023-04-21T20:37:07.996Z,3.03
2023-04-21T20:39:34.923Z,3.03
2023-04-21T20:42:12.720Z,2.50
2023-04-21T20:44:43.981Z,2.63
2023-04-21T20:47:11.505Z,2.50
2023-04-21T20:49:40.037Z,2.53
2023-04-21T20:52:07.246Z,2.80
2023-04-21T20:54:34.822Z,2.63
2023-04-21T20:57:02.458Z,2.83
2023-04-21T20:59:29.464Z,3.20
2023-04-21T21:01:56.456Z,3.60
2023-04-21T21:04:23.662Z,3.80
2023-04-21T21:06:50.707Z,4.53
2023-04-21T21:09:19.066Z,5.20
2023-04-21T21:11:46.606Z,5.20
2023-04-21T21:14:13.518Z,6.13
2023-04-21T21:16:40.536Z,6.50
2023-04-21T21:19:07.437Z,7.07
2023-04-21T21:21:34.352Z,7.27
2023-04-21T21:24:01.266Z,7.30
2023-04-21T21:26:28.889Z,7.93
2023-04-21T21:28:55.797Z,7.73
2023-04-21T21:31:22.691Z,7.77
2023-04-21T21:33:49.532Z,8.43
2023-04-21T21:36:16.427Z,7.60
2023-04-21T21:38:43.389Z,7.57
2023-04-21T21:41:14.080Z,8.67
2023-04-21T21:43:41.264Z,7.63
2023-04-21T21:46:08.992Z,7.70
2023-04-21T21:48:36.062Z,7.80
2023-04-21T21:51:04.353Z,7.47
2023-04-21T21:53:31.498Z,8.53
2023-04-21T21:55:59.329Z,7.77
2023-04-21T21:58:26.753Z,7.20
2023-04-21T22:00:53.597Z,8.20
2023-04-21T22:03:21.359Z,7.60
2023-04-21T22:05:48.946Z,7.93
2023-04-21T22:08:15.913Z,7.87
2023-04-21T22:10:43.863Z,8.10
2023-04-21T22:13:11.215Z,7.80
2023-04-21T22:15:38.774Z,8.00
2023-04-21T22:18:07.140Z,7.93
2023-04-21T22:20:34.283Z,8.40
2023-04-21T22:23:01.076Z,8.03
2023-04-21T22:25:27.969Z,8.47
2023-04-21T22:27:58.659Z,8.90
2023-04-21T22:30:25.945Z,7.90
2023-04-21T22:32:53.045Z,9.00
2023-04-21T22:35:20.312Z,8.63
2023-04-21T22:37:47.137Z,8.70
2023-04-21T22:40:14.029Z,8.07
2023-04-21T22:42:40.867Z,8.47
2023-04-21T22:45:08.307Z,8.90
2023-04-21T22:47:35.448Z,8.83
2023-04-21T22:50:02.420Z,9.37
2023-04-21T22:52:29.296Z,8.57
2023-04-21T22:54:56.163Z,8.80
2023-04-21T22:57:23.076Z,8.73
2023-04-21T22:59:49.969Z,9.07
2023-04-21T23:02:16.879Z,9.30
2023-04-21T23:04:44.140Z,9.73
2023-04-21T23:07:11.001Z,10.73
2023-04-21T23:09:38.122Z,10.20
2023-04-21T23:12:06.177Z,9.53
2023-04-21T23:14:33.106Z,9.83
2023-04-21T23:17:00.046Z,9.27
2023-04-21T23:19:26.968Z,9.63
2023-04-21T23:21:53.828Z,9.73
2023-04-21T23:24:20.636Z,9.80
2023-04-21T23:26:47.453Z,9.93
2023-04-21T23:29:14.252Z,10.20
2023-04-21T23:31:41.203Z,9.70
2023-04-21T23:34:08.140Z,10.20
2023-04-21T23:36:35.004Z,10.20
2023-04-21T23:39:02.014Z,10.17
2023-04-21T23:41:28.971Z,10.43
2023-04-21T23:43:55.966Z,9.90
2023-04-21T23:46:22.905Z,9.60
2023-04-21T23:48:49.856Z,8.90
2023-04-21T23:51:16.753Z,8.50
2023-04-21T23:53:43.666Z,9.67
2023-04-21T23:56:10.547Z,8.97
2023-04-21T23:58:37.636Z,7.57
